Time;durP1;ratioP1;P1;durP2;ratioP2;P2;SDS_P1;SDS_P2;PMS_P1;PMS_P2;Temp;Humidity;BMP_temperature;BMP_pressure;BME280_temperature;BME280_humidity;BME280_pressure;Samples;Min_cycle;Max_cycle;Signal;HPM_P1;HPM_P2
2021/10/26 00:02:02;;;;;;;16.00;10.98;;;;;;;;;;5059255;28;20043;-89
2021/10/26 00:04:28;;;;;;;18.27;12.60;;;;;;;;;;5060543;28;20051;-88
2021/10/26 00:06:54;;;;;;;17.15;12.40;;;;;;;;;;5059512;28;20067;-90
2021/10/26 00:09:21;;;;;;;20.60;14.65;;;;;;;;;;5077808;28;20048;-88
2021/10/26 00:11:48;;;;;;;24.58;16.55;;;;;;;;;;5059884;28;20518;-88
2021/10/26 00:14:14;;;;;;;26.80;18.60;;;;;;;;;;5060285;28;20098;-88
2021/10/26 00:16:40;;;;;;;30.23;19.52;;;;;;;;;;5076231;28;20089;-87
2021/10/26 00:19:06;;;;;;;37.70;25.00;;;;;;;;;;5059442;28;20130;-89
2021/10/26 00:21:32;;;;;;;45.22;27.05;;;;;;;;;;5059510;28;20079;-88
2021/10/26 00:23:59;;;;;;;46.90;29.63;;;;;;;;;;5076319;28;20048;-88
2021/10/26 00:26:25;;;;;;;49.53;31.17;;;;;;;;;;5076935;28;20095;-88
2021/10/26 00:28:53;;;;;;;53.22;32.97;;;;;;;;;;5060193;28;20563;-91
2021/10/26 00:31:20;;;;;;;48.38;30.95;;;;;;;;;;5060014;28;20047;-89
2021/10/26 00:33:46;;;;;;;47.47;31.25;;;;;;;;;;5060218;28;20055;-88
2021/10/26 00:36:12;;;;;;;52.05;33.13;;;;;;;;;;5059264;28;20044;-88
2021/10/26 00:38:38;;;;;;;52.80;32.80;;;;;;;;;;5059118;28;20051;-88
2021/10/26 00:41:05;;;;;;;57.97;35.60;;;;;;;;;;5076203;28;20047;-88
2021/10/26 00:43:31;;;;;;;50.38;31.92;;;;;;;;;;5059971;28;20131;-89
2021/10/26 00:45:58;;;;;;;53.13;33.22;;;;;;;;;;5059058;28;20036;-88
2021/10/26 00:48:24;;;;;;;56.25;34.55;;;;;;;;;;5059773;28;20285;-89
2021/10/26 00:50:52;;;;;;;58.78;33.55;;;;;;;;;;5059634;28;20048;-90
2021/10/26 00:53:18;;;;;;;57.00;33.65;;;;;;;;;;5058597;28;20093;-88
2021/10/26 00:55:45;;;;;;;59.05;34.20;;;;;;;;;;5058632;28;20102;-88
2021/10/26 00:58:11;;;;;;;67.65;36.65;;;;;;;;;;5057626;28;20048;-89
2021/10/26 01:00:38;;;;;;;52.10;32.53;;;;;;;;;;5057864;28;20062;-89
2021/10/26 01:03:04;;;;;;;55.92;34.88;;;;;;;;;;5058134;28;20039;-89
2021/10/26 01:05:30;;;;;;;61.47;36.63;;;;;;;;;;5058994;28;20126;-89
2021/10/26 01:07:56;;;;;;;54.75;33.60;;;;;;;;;;5058493;28;20087;-90
2021/10/26 01:10:23;;;;;;;63.65;36.30;;;;;;;;;;5058707;28;20139;-89
2021/10/26 01:12:50;;;;;;;58.97;34.88;;;;;;;;;;5075660;28;20056;-89
2021/10/26 01:15:16;;;;;;;53.08;30.88;;;;;;;;;;5058296;28;20051;-89
2021/10/26 01:17:42;;;;;;;59.83;34.42;;;;;;;;;;5071072;28;20048;-89
2021/10/26 01:20:10;;;;;;;56.95;33.72;;;;;;;;;;5058737;28;20052;-89
2021/10/26 01:22:39;;;;;;;63.63;34.17;;;;;;;;;;5059425;28;20052;-88
2021/10/26 01:25:10;;;;;;;59.42;35.50;;;;;;;;;;5057937;28;20040;-88
2021/10/26 01:27:39;;;;;;;67.07;37.28;;;;;;;;;;5059254;28;20048;-89
2021/10/26 01:30:06;;;;;;;54.05;32.13;;;;;;;;;;5058206;28;20043;-87
2021/10/26 01:32:33;;;;;;;69.07;36.75;;;;;;;;;;5075541;28;20071;-89
2021/10/26 01:34:59;;;;;;;70.10;37.42;;;;;;;;;;5058566;28;20040;-89
2021/10/26 01:37:25;;;;;;;66.78;36.72;;;;;;;;;;5058518;28;20122;-89
2021/10/26 01:39:51;;;;;;;70.43;36.60;;;;;;;;;;5075005;28;20043;-89
2021/10/26 01:42:18;;;;;;;71.22;36.70;;;;;;;;;;5058311;28;20036;-90
2021/10/26 01:44:45;;;;;;;66.22;36.75;;;;;;;;;;5058396;28;20044;-89
2021/10/26 01:47:11;;;;;;;84.97;38.50;;;;;;;;;;5074431;28;20044;-89
2021/10/26 01:49:37;;;;;;;68.18;36.08;;;;;;;;;;5058434;28;20511;-90
2021/10/26 01:52:04;;;;;;;74.07;37.05;;;;;;;;;;5058319;28;20040;-89
2021/10/26 01:54:36;;;;;;;58.95;33.47;;;;;;;;;;5057845;28;20153;-89
2021/10/26 01:57:03;;;;;;;69.13;35.42;;;;;;;;;;5056595;28;20036;-89
2021/10/26 01:59:32;;;;;;;67.30;35.67;;;;;;;;;;5057981;28;20233;-89
2021/10/26 02:02:01;;;;;;;61.95;34.60;;;;;;;;;;5058168;28;20048;-89
2021/10/26 02:04:27;;;;;;;62.17;33.70;;;;;;;;;;5050354;28;20055;-89
2021/10/26 02:06:54;;;;;;;58.15;33.05;;;;;;;;;;5075245;28;20047;-91
2021/10/26 02:09:20;;;;;;;64.05;35.03;;;;;;;;;;5075071;28;20040;-89
2021/10/26 02:11:47;;;;;;;58.50;33.78;;;;;;;;;;5058218;28;20056;-89
2021/10/26 02:14:13;;;;;;;57.20;32.33;;;;;;;;;;5057954;28;20098;-88
2021/10/26 02:16:40;;;;;;;65.03;34.58;;;;;;;;;;5058049;28;20119;-89
2021/10/26 02:19:06;;;;;;;57.65;32.05;;;;;;;;;;5058260;28;20036;-89
2021/10/26 02:21:32;;;;;;;57.33;32.60;;;;;;;;;;5058404;28;20047;-90
2021/10/26 02:23:58;;;;;;;62.58;34.15;;;;;;;;;;5056948;28;20024;-91
2021/10/26 02:26:24;;;;;;;50.58;30.17;;;;;;;;;;5058309;28;20055;-88
2021/10/26 02:28:50;;;;;;;59.78;33.67;;;;;;;;;;5038638;28;20047;-92
2021/10/26 02:31:17;;;;;;;55.03;31.10;;;;;;;;;;5054799;28;20135;-90
2021/10/26 02:33:43;;;;;;;56.92;33.20;;;;;;;;;;5058058;28;20036;-88
2021/10/26 02:36:11;;;;;;;65.72;34.55;;;;;;;;;;5057566;28;20522;-88
2021/10/26 02:38:37;;;;;;;55.60;31.70;;;;;;;;;;5057570;28;20048;-90
2021/10/26 02:41:04;;;;;;;59.80;32.97;;;;;;;;;;5040926;28;20044;-88
2021/10/26 02:43:30;;;;;;;61.38;32.45;;;;;;;;;;5038239;28;20040;-88
2021/10/26 02:45:57;;;;;;;60.67;33.35;;;;;;;;;;5037923;28;20042;-91
2021/10/26 02:48:24;;;;;;;64.28;32.33;;;;;;;;;;5038031;28;20097;-89
2021/10/26 02:50:50;;;;;;;52.20;31.20;;;;;;;;;;5044482;28;20125;-89
2021/10/26 02:53:16;;;;;;;51.00;30.17;;;;;;;;;;5057292;28;20094;-89
2021/10/26 02:55:42;;;;;;;53.55;31.45;;;;;;;;;;5073968;28;20044;-88
2021/10/26 02:58:09;;;;;;;53.67;31.00;;;;;;;;;;5057584;28;20079;-88
2021/10/26 03:00:35;;;;;;;49.03;29.83;;;;;;;;;;5057840;28;20131;-88
2021/10/26 03:03:01;;;;;;;53.35;30.73;;;;;;;;;;5057873;28;20051;-87
2021/10/26 03:05:27;;;;;;;53.47;30.45;;;;;;;;;;5057488;28;20044;-89
2021/10/26 03:07:53;;;;;;;50.05;29.58;;;;;;;;;;5074794;28;20044;-89
2021/10/26 03:10:22;;;;;;;51.08;29.20;;;;;;;;;;5056860;28;20091;-92
2021/10/26 03:12:48;;;;;;;60.80;32.45;;;;;;;;;;5057194;28;20048;-89
2021/10/26 03:15:14;;;;;;;58.30;32.03;;;;;;;;;;5056772;28;20044;-89
2021/10/26 03:17:41;;;;;;;41.45;28.35;;;;;;;;;;5057490;28;20048;-88
2021/10/26 03:20:07;;;;;;;51.30;30.05;;;;;;;;;;5056311;28;20047;-88
2021/10/26 03:22:34;;;;;;;54.85;32.13;;;;;;;;;;5057444;28;20054;-89
2021/10/26 03:25:00;;;;;;;49.00;31.02;;;;;;;;;;5056864;28;20373;-89
2021/10/26 03:27:26;;;;;;;55.05;31.80;;;;;;;;;;5056972;28;20426;-89
2021/10/26 03:29:52;;;;;;;55.13;31.10;;;;;;;;;;5057836;28;20040;-88
2021/10/26 03:32:19;;;;;;;61.63;33.58;;;;;;;;;;5073584;28;20063;-89
2021/10/26 03:34:45;;;;;;;55.13;31.17;;;;;;;;;;5057650;28;20047;-90
2021/10/26 03:37:11;;;;;;;61.03;32.90;;;;;;;;;;5060783;28;20055;-88
2021/10/26 03:39:37;;;;;;;60.55;32.58;;;;;;;;;;5059879;28;20075;-89
2021/10/26 03:42:03;;;;;;;52.80;31.35;;;;;;;;;;5060582;28;20040;-89
2021/10/26 03:44:29;;;;;;;59.55;32.05;;;;;;;;;;5061150;28;20476;-88
2021/10/26 03:46:56;;;;;;;54.42;30.60;;;;;;;;;;5060617;28;20047;-91
2021/10/26 03:49:22;;;;;;;55.15;30.60;;;;;;;;;;5060383;28;20043;-90
2021/10/26 03:51:48;;;;;;;53.88;30.00;;;;;;;;;;5060484;28;20205;-89
2021/10/26 03:54:14;;;;;;;57.05;31.55;;;;;;;;;;5059697;28;20130;-89
2021/10/26 03:56:40;;;;;;;50.72;28.88;;;;;;;;;;5076360;28;20089;-89
2021/10/26 03:59:09;;;;;;;49.88;30.20;;;;;;;;;;5060418;28;20407;-88
2021/10/26 04:01:36;;;;;;;48.47;28.13;;;;;;;;;;5060195;28;20057;-89
2021/10/26 04:04:02;;;;;;;47.70;26.60;;;;;;;;;;5060338;28;20047;-89
2021/10/26 04:06:30;;;;;;;49.25;28.00;;;;;;;;;;5077412;28;20396;-87
2021/10/26 04:09:02;;;;;;;48.58;28.55;;;;;;;;;;5076922;28;20052;-89
2021/10/26 04:11:30;;;;;;;50.40;27.65;;;;;;;;;;5059693;28;20101;-87
2021/10/26 04:13:57;;;;;;;42.78;26.85;;;;;;;;;;5059815;28;20133;-91
2021/10/26 04:16:24;;;;;;;48.75;27.27;;;;;;;;;;5059430;28;20046;-87
2021/10/26 04:18:50;;;;;;;44.42;26.52;;;;;;;;;;5060466;28;20047;-86
2021/10/26 04:21:17;;;;;;;44.47;26.15;;;;;;;;;;5060553;28;20652;-88
2021/10/26 04:23:43;;;;;;;51.65;26.63;;;;;;;;;;5059871;28;20113;-88
2021/10/26 04:26:10;;;;;;;42.60;26.08;;;;;;;;;;5076571;28;20040;-88
2021/10/26 04:28:36;;;;;;;42.35;24.80;;;;;;;;;;5077323;28;20130;-88
2021/10/26 04:31:05;;;;;;;42.33;25.10;;;;;;;;;;5059629;28;20039;-89
2021/10/26 04:33:31;;;;;;;39.13;23.80;;;;;;;;;;5060547;28;20146;-87
2021/10/26 04:35:57;;;;;;;44.83;26.05;;;;;;;;;;5075218;28;20073;-89
2021/10/26 04:38:23;;;;;;;39.45;24.13;;;;;;;;;;5057819;28;20504;-87
2021/10/26 04:40:49;;;;;;;49.63;26.00;;;;;;;;;;5054632;28;20044;-88
2021/10/26 04:43:19;;;;;;;44.30;25.00;;;;;;;;;;5054764;28;20505;-91
2021/10/26 04:45:47;;;;;;;45.17;24.92;;;;;;;;;;5059947;28;20036;-88
2021/10/26 04:48:14;;;;;;;41.10;23.70;;;;;;;;;;5077638;28;20122;-88
2021/10/26 04:50:40;;;;;;;50.97;24.92;;;;;;;;;;5073132;28;20051;-88
2021/10/26 04:53:06;;;;;;;46.72;25.48;;;;;;;;;;5058120;28;20051;-89
2021/10/26 04:55:32;;;;;;;51.55;25.08;;;;;;;;;;5058721;28;20036;-88
2021/10/26 04:57:58;;;;;;;49.47;25.50;;;;;;;;;;5058454;28;20044;-90
2021/10/26 05:00:27;;;;;;;45.88;24.98;;;;;;;;;;5059650;28;20052;-89
2021/10/26 05:02:53;;;;;;;41.75;23.52;;;;;;;;;;5058203;28;20085;-87
2021/10/26 05:05:19;;;;;;;55.38;26.58;;;;;;;;;;5059051;28;20040;-88
2021/10/26 05:07:45;;;;;;;40.83;23.88;;;;;;;;;;5075663;28;20044;-88
2021/10/26 05:10:11;;;;;;;48.25;26.60;;;;;;;;;;5075602;28;20071;-89
2021/10/26 05:12:37;;;;;;;48.45;25.90;;;;;;;;;;5074735;28;20040;-88
2021/10/26 05:15:04;;;;;;;53.10;26.42;;;;;;;;;;5059111;28;20043;-88
2021/10/26 05:17:30;;;;;;;55.78;27.27;;;;;;;;;;5059644;28;20059;-89
2021/10/26 05:19:58;;;;;;;51.42;26.80;;;;;;;;;;5051205;28;20044;-87
2021/10/26 05:22:27;;;;;;;48.90;25.38;;;;;;;;;;5058134;28;20040;-87
2021/10/26 05:24:53;;;;;;;47.33;26.45;;;;;;;;;;5076129;28;20036;-88
2021/10/26 05:27:24;;;;;;;46.83;25.42;;;;;;;;;;5059141;28;20050;-92
2021/10/26 05:29:55;;;;;;;63.17;28.08;;;;;;;;;;5063148;28;20048;-92
2021/10/26 05:39:39;;;;;;;73.53;31.13;;;;;;;;;;5098340;28;20061;-93
2021/10/26 05:42:08;;;;;;;69.47;30.73;;;;;;;;;;5062874;28;20051;-92
2021/10/26 05:44:38;;;;;;;71.00;30.60;;;;;;;;;;5063640;28;20047;-91
2021/10/26 05:47:07;;;;;;;55.65;29.10;;;;;;;;;;5062157;28;20104;-92
2021/10/26 05:49:33;;;;;;;47.60;26.65;;;;;;;;;;5079026;28;20047;-92
2021/10/26 05:55:42;;;;;;;56.95;29.02;;;;;;;;;;5096226;28;20057;-93
2021/10/26 05:58:10;;;;;;;52.50;27.48;;;;;;;;;;5062276;28;20046;-92
2021/10/26 06:00:47;;;;;;;74.97;32.25;;;;;;;;;;5061993;28;20054;-92
2021/10/26 06:03:14;;;;;;;68.80;31.70;;;;;;;;;;5061968;28;20093;-92
2021/10/26 06:05:41;;;;;;;58.42;29.90;;;;;;;;;;5078719;28;20062;-91
2021/10/26 06:11:44;;;;;;;64.57;30.77;;;;;;;;;;5095166;28;20574;-92
2021/10/26 06:14:49;;;;;;;73.88;32.03;;;;;;;;;;5034033;28;20037;-93
2021/10/26 06:17:31;;;;;;;77.78;33.10;;;;;;;;;;5001920;28;20068;-91
2021/10/26 06:26:38;;;;;;;76.35;28.17;;;;;;;;;;5017167;28;20053;-91
2021/10/26 06:29:07;;;;;;;132.95;37.28;;;;;;;;;;5000776;28;20088;-92
2021/10/26 06:31:34;;;;;;;114.95;33.95;;;;;;;;;;5000983;28;20061;-91
2021/10/26 06:34:01;;;;;;;126.10;36.17;;;;;;;;;;5001054;28;20064;-91
2021/10/26 06:36:27;;;;;;;109.28;34.45;;;;;;;;;;5000852;28;20527;-91
2021/10/26 06:38:53;;;;;;;114.53;35.80;;;;;;;;;;5001090;28;20057;-92
2021/10/26 06:41:25;;;;;;;104.53;34.30;;;;;;;;;;5001473;28;20051;-92
2021/10/26 06:44:17;;;;;;;107.95;37.38;;;;;;;;;;5000955;28;20042;-93
2021/10/26 06:46:44;;;;;;;102.55;33.53;;;;;;;;;;5060974;28;20151;-92
2021/10/26 06:49:10;;;;;;;80.38;32.83;;;;;;;;;;5061356;28;20056;-91
2021/10/26 06:55:06;;;;;;;69.32;30.85;;;;;;;;;;5094753;28;20054;-91
2021/10/26 06:57:47;;;;;;;69.20;29.45;;;;;;;;;;5061073;28;20051;-91
2021/10/26 07:00:17;;;;;;;67.57;31.33;;;;;;;;;;5062499;28;20105;-92
2021/10/26 07:03:02;;;;;;;77.07;31.98;;;;;;;;;;5062293;28;20048;-92
2021/10/26 07:12:43;;;;;;;62.40;28.33;;;;;;;;;;5098054;28;20079;-92
2021/10/26 07:16:05;;;;;;;53.10;26.77;;;;;;;;;;5084074;28;20128;-92
2021/10/26 07:18:57;;;;;;;62.33;27.30;;;;;;;;;;5081733;28;20048;-90
2021/10/26 07:21:23;;;;;;;58.58;28.73;;;;;;;;;;5064995;28;20070;-91
2021/10/26 07:23:49;;;;;;;57.17;27.48;;;;;;;;;;5065379;28;20063;-91
2021/10/26 07:26:27;;;;;;;53.42;28.00;;;;;;;;;;5064611;28;20044;-91
2021/10/26 07:28:55;;;;;;;55.78;27.38;;;;;;;;;;5064582;28;20469;-92
2021/10/26 07:31:31;;;;;;;53.90;27.30;;;;;;;;;;5081170;28;20044;-92
2021/10/26 07:37:49;;;;;;;53.53;26.05;;;;;;;;;;5098753;28;20087;-93
2021/10/26 07:40:39;;;;;;;48.00;24.23;;;;;;;;;;5063882;28;20040;-92
2021/10/26 07:43:05;;;;;;;44.60;24.83;;;;;;;;;;5081219;28;20055;-92
2021/10/26 07:45:33;;;;;;;41.67;23.50;;;;;;;;;;5064158;28;20062;-92
2021/10/26 07:48:01;;;;;;;38.20;22.27;;;;;;;;;;5064731;28;20092;-92
2021/10/26 07:54:14;;;;;;;38.85;22.48;;;;;;;;;;5098338;28;20066;-93
2021/10/26 07:56:58;;;;;;;40.65;22.17;;;;;;;;;;5063851;28;20403;-92
2021/10/26 07:59:25;;;;;;;37.85;22.33;;;;;;;;;;5063801;28;20126;-93
2021/10/26 08:01:51;;;;;;;37.17;21.92;;;;;;;;;;5064451;28;20048;-92
2021/10/26 08:04:40;;;;;;;37.25;21.55;;;;;;;;;;5064512;28;20429;-94
2021/10/26 08:10:40;;;;;;;34.28;20.23;;;;;;;;;;5098832;28;20035;-92
2021/10/26 08:17:52;;;;;;;31.75;17.50;;;;;;;;;;5053076;28;20109;-91
2021/10/26 08:20:37;;;;;;;31.70;17.63;;;;;;;;;;5063150;28;20507;-91
2021/10/26 08:23:35;;;;;;;29.90;16.67;;;;;;;;;;5059843;28;20056;-93
2021/10/26 08:29:36;;;;;;;28.23;17.33;;;;;;;;;;5077954;28;20032;-92
2021/10/26 08:35:47;;;;;;;29.70;16.05;;;;;;;;;;5077822;28;20048;-91
2021/10/26 08:41:49;;;;;;;27.27;15.60;;;;;;;;;;5077276;28;20031;-92
2021/10/26 08:47:53;;;;;;;24.02;14.05;;;;;;;;;;5077404;28;20102;-92
2021/10/26 09:07:21;;;;;;;21.08;12.82;;;;;;;;;;5076473;28;20082;-91
2021/10/26 09:10:23;;;;;;;23.10;13.48;;;;;;;;;;5042400;28;20552;-91
2021/10/26 09:19:27;;;;;;;20.13;10.90;;;;;;;;;;5058693;28;20052;-92
2021/10/26 09:22:01;;;;;;;23.75;11.35;;;;;;;;;;5041865;28;20529;-91
2021/10/26 09:24:46;;;;;;;20.27;11.82;;;;;;;;;;5041811;28;20049;-90
2021/10/26 09:27:19;;;;;;;22.50;11.88;;;;;;;;;;5041590;28;20040;-91
2021/10/26 09:29:48;;;;;;;19.60;11.07;;;;;;;;;;5041788;28;20066;-91
2021/10/26 09:32:22;;;;;;;23.13;12.13;;;;;;;;;;5057830;28;20139;-92
2021/10/26 09:34:52;;;;;;;20.90;10.90;;;;;;;;;;5041673;28;20366;-91
2021/10/26 09:37:39;;;;;;;24.95;11.27;;;;;;;;;;5041168;28;20048;-91
2021/10/26 09:40:06;;;;;;;21.70;12.20;;;;;;;;;;5041627;28;20052;-93
2021/10/26 09:42:45;;;;;;;20.15;11.38;;;;;;;;;;5041491;28;20044;-91
2021/10/26 09:45:13;;;;;;;18.25;9.82;;;;;;;;;;5041318;28;20107;-92
2021/10/26 09:47:40;;;;;;;24.17;11.32;;;;;;;;;;5057920;28;20044;-91
2021/10/26 09:50:08;;;;;;;18.88;11.15;;;;;;;;;;5041858;28;20039;-91
2021/10/26 09:52:36;;;;;;;18.48;10.73;;;;;;;;;;5058110;28;20056;-92
2021/10/26 09:55:28;;;;;;;20.45;10.25;;;;;;;;;;5041526;28;20463;-91
2021/10/26 09:58:01;;;;;;;22.10;11.93;;;;;;;;;;5042285;28;20046;-91
2021/10/26 10:00:29;;;;;;;22.50;12.52;;;;;;;;;;5041569;28;20047;-91
2021/10/26 10:03:13;;;;;;;24.67;12.18;;;;;;;;;;5057476;28;20477;-91
2021/10/26 10:05:45;;;;;;;19.95;11.52;;;;;;;;;;5041112;28;20103;-91
2021/10/26 10:08:20;;;;;;;21.83;11.45;;;;;;;;;;5040870;28;20472;-91
2021/10/26 10:10:46;;;;;;;20.55;12.95;;;;;;;;;;5040845;28;20110;-90
2021/10/26 10:13:13;;;;;;;20.50;9.48;;;;;;;;;;5040173;28;20127;-90
2021/10/26 10:15:42;;;;;;;27.05;13.45;;;;;;;;;;5040435;28;20154;-89
2021/10/26 10:18:11;;;;;;;21.83;10.45;;;;;;;;;;5056901;28;20044;-93
2021/10/26 10:20:37;;;;;;;24.23;12.35;;;;;;;;;;5040501;28;20048;-90
2021/10/26 10:23:03;;;;;;;19.52;10.38;;;;;;;;;;5040369;28;20040;-91
2021/10/26 10:25:30;;;;;;;22.30;12.57;;;;;;;;;;5040265;28;20072;-90
2021/10/26 10:27:57;;;;;;;17.40;9.20;;;;;;;;;;5040603;28;20128;-92
2021/10/26 10:30:23;;;;;;;16.63;8.95;;;;;;;;;;5039828;28;20517;-91
2021/10/26 10:32:49;;;;;;;23.77;13.00;;;;;;;;;;5057320;28;20048;-91
2021/10/26 10:35:16;;;;;;;19.33;11.23;;;;;;;;;;5039814;28;20041;-89
2021/10/26 10:37:48;;;;;;;21.73;11.43;;;;;;;;;;5040658;28;20048;-92
2021/10/26 10:40:32;;;;;;;23.55;13.20;;;;;;;;;;5061054;28;20056;-91
2021/10/26 10:42:58;;;;;;;24.55;13.38;;;;;;;;;;5076832;28;20048;-91
2021/10/26 10:45:32;;;;;;;25.45;12.95;;;;;;;;;;5061101;28;20055;-90
2021/10/26 10:47:59;;;;;;;25.83;12.07;;;;;;;;;;5064230;28;20480;-90
2021/10/26 10:50:54;;;;;;;20.25;11.82;;;;;;;;;;5064523;28;20040;-90
2021/10/26 10:53:21;;;;;;;26.20;12.70;;;;;;;;;;5064192;28;20048;-90
2021/10/26 10:55:55;;;;;;;25.40;13.07;;;;;;;;;;5064467;28;20075;-91
2021/10/26 10:58:23;;;;;;;22.55;13.70;;;;;;;;;;5064508;28;20050;-91
2021/10/26 11:00:49;;;;;;;16.23;8.88;;;;;;;;;;5063978;28;20071;-90
2021/10/26 11:03:32;;;;;;;21.42;13.50;;;;;;;;;;5064237;28;20051;-91
2021/10/26 11:05:59;;;;;;;20.77;13.13;;;;;;;;;;5063733;28;20117;-90
2021/10/26 11:08:47;;;;;;;23.70;13.57;;;;;;;;;;5063464;28;20427;-91
2021/10/26 11:11:16;;;;;;;21.33;13.88;;;;;;;;;;5063415;28;20048;-92
2021/10/26 11:13:42;;;;;;;21.10;12.75;;;;;;;;;;5063334;28;20503;-90
2021/10/26 11:16:10;;;;;;;23.13;12.48;;;;;;;;;;5063706;28;20047;-91
2021/10/26 11:18:37;;;;;;;21.83;11.70;;;;;;;;;;5080804;28;20147;-90
2021/10/26 11:21:07;;;;;;;21.35;13.15;;;;;;;;;;5080441;28;20040;-91
2021/10/26 11:23:45;;;;;;;18.45;11.60;;;;;;;;;;5063528;28;20044;-90
2021/10/26 11:26:15;;;;;;;16.10;9.90;;;;;;;;;;5080287;28;20052;-90
2021/10/26 11:28:46;;;;;;;16.00;9.90;;;;;;;;;;5063685;28;20040;-90
2021/10/26 11:31:15;;;;;;;17.55;9.02;;;;;;;;;;5063079;28;20048;-92
2021/10/26 11:33:51;;;;;;;19.08;9.30;;;;;;;;;;5080024;28;20480;-89
2021/10/26 11:36:17;;;;;;;18.23;8.93;;;;;;;;;;5079542;28;20400;-90
2021/10/26 11:38:50;;;;;;;16.13;9.00;;;;;;;;;;5053878;28;20190;-89
2021/10/26 11:41:23;;;;;;;18.00;9.93;;;;;;;;;;5054011;28;20120;-90
2021/10/26 11:43:55;;;;;;;21.23;9.65;;;;;;;;;;5039554;28;20051;-90
2021/10/26 11:46:44;;;;;;;19.33;9.65;;;;;;;;;;5022848;28;20059;-90
2021/10/26 11:49:18;;;;;;;19.00;9.93;;;;;;;;;;5022941;28;20056;-94
2021/10/26 11:51:44;;;;;;;19.83;11.40;;;;;;;;;;5022693;28;20054;-90
2021/10/26 11:54:19;;;;;;;15.45;8.80;;;;;;;;;;5021973;28;20405;-93
2021/10/26 11:57:05;;;;;;;19.38;11.23;;;;;;;;;;5021979;28;20048;-89
2021/10/26 11:59:34;;;;;;;16.13;9.00;;;;;;;;;;5022031;28;20049;-90
2021/10/26 12:02:10;;;;;;;18.52;9.80;;;;;;;;;;5039024;28;20401;-91
2021/10/26 12:04:40;;;;;;;16.63;10.30;;;;;;;;;;5022932;28;20060;-90
2021/10/26 12:07:08;;;;;;;14.85;9.27;;;;;;;;;;5039045;28;20041;-89
2021/10/26 12:09:53;;;;;;;16.45;9.55;;;;;;;;;;5023122;28;20087;-89
2021/10/26 12:12:22;;;;;;;17.05;8.88;;;;;;;;;;5022618;28;20045;-89
2021/10/26 12:14:49;;;;;;;17.83;9.40;;;;;;;;;;5022751;28;20052;-89
2021/10/26 12:17:25;;;;;;;15.82;8.60;;;;;;;;;;5033372;28;20400;-89
2021/10/26 12:20:08;;;;;;;15.50;9.40;;;;;;;;;;5042452;28;20106;-89
2021/10/26 12:22:44;;;;;;;17.05;8.23;;;;;;;;;;5042407;28;20051;-89
2021/10/26 12:25:18;;;;;;;21.13;9.65;;;;;;;;;;5042532;28;20044;-89
2021/10/26 12:27:53;;;;;;;16.33;9.65;;;;;;;;;;5058767;28;20131;-89
2021/10/26 12:30:21;;;;;;;14.77;9.30;;;;;;;;;;5042310;28;20080;-88
2021/10/26 12:32:48;;;;;;;16.40;9.52;;;;;;;;;;5041729;28;20106;-89
2021/10/26 12:35:15;;;;;;;15.13;9.90;;;;;;;;;;5041687;28;20052;-91
2021/10/26 12:37:43;;;;;;;16.75;9.40;;;;;;;;;;5042224;28;20044;-92
2021/10/26 12:40:20;;;;;;;13.55;8.85;;;;;;;;;;5058965;28;20110;-90
2021/10/26 12:43:24;;;;;;;15.82;9.57;;;;;;;;;;5073228;28;20488;-90
2021/10/26 12:45:58;;;;;;;17.13;9.93;;;;;;;;;;5042421;28;20393;-90
2021/10/26 12:48:32;;;;;;;15.95;9.38;;;;;;;;;;5041990;28;20456;-90
2021/10/26 12:51:02;;;;;;;16.85;9.77;;;;;;;;;;5042146;28;20131;-89
2021/10/26 12:53:39;;;;;;;16.83;9.40;;;;;;;;;;5041845;28;20202;-90
2021/10/26 12:56:21;;;;;;;14.18;9.98;;;;;;;;;;5058075;28;20162;-90
2021/10/26 12:58:49;;;;;;;16.17;10.82;;;;;;;;;;5041578;28;20447;-91
2021/10/26 13:01:42;;;;;;;19.55;12.23;;;;;;;;;;5057967;28;20044;-90
2021/10/26 13:04:19;;;;;;;18.80;13.52;;;;;;;;;;5041647;28;20088;-90
2021/10/26 13:07:05;;;;;;;20.92;13.07;;;;;;;;;;5041492;28;20131;-90
2021/10/26 13:12:03;;;;;;;17.85;10.88;;;;;;;;;;5057444;28;20537;-88
2021/10/26 13:14:37;;;;;;;16.55;10.73;;;;;;;;;;5041305;28;20048;-92
2021/10/26 13:17:21;;;;;;;19.00;11.50;;;;;;;;;;5039983;28;20122;-89
2021/10/26 13:19:47;;;;;;;11.85;8.23;;;;;;;;;;5047819;28;20097;-89
2021/10/26 13:22:15;;;;;;;11.90;8.88;;;;;;;;;;5077613;28;20066;-89
2021/10/26 13:24:45;;;;;;;10.52;7.13;;;;;;;;;;5077395;28;20044;-89
2021/10/26 13:27:13;;;;;;;11.20;7.55;;;;;;;;;;5059629;28;20466;-86
2021/10/26 13:29:44;;;;;;;11.45;8.15;;;;;;;;;;5058817;28;20090;-87
2021/10/26 13:32:17;;;;;;;13.30;7.47;;;;;;;;;;5070890;28;20049;-86
2021/10/26 13:34:43;;;;;;;14.07;9.20;;;;;;;;;;5073951;28;20142;-87
2021/10/26 13:37:09;;;;;;;14.20;9.35;;;;;;;;;;5056849;28;20056;-87
2021/10/26 13:39:35;;;;;;;12.35;9.13;;;;;;;;;;5065757;28;20144;-87
2021/10/26 13:42:01;;;;;;;13.95;9.82;;;;;;;;;;5058238;28;20051;-87
2021/10/26 13:44:28;;;;;;;13.60;10.25;;;;;;;;;;5056541;28;20048;-88
2021/10/26 13:46:54;;;;;;;15.27;10.32;;;;;;;;;;5072490;28;20392;-86
2021/10/26 13:49:20;;;;;;;17.58;10.48;;;;;;;;;;5072993;28;20056;-87
2021/10/26 13:51:49;;;;;;;14.43;10.82;;;;;;;;;;5050703;28;20126;-87
2021/10/26 13:54:16;;;;;;;16.50;12.07;;;;;;;;;;5053644;28;20052;-89
2021/10/26 13:56:42;;;;;;;18.05;12.25;;;;;;;;;;5073566;28;20052;-86
2021/10/26 13:59:08;;;;;;;17.73;12.73;;;;;;;;;;5073388;28;20052;-87
2021/10/26 14:01:34;;;;;;;18.55;12.32;;;;;;;;;;5056242;28;20046;-87
2021/10/26 14:04:01;;;;;;;14.77;12.05;;;;;;;;;;5050309;28;20508;-87
2021/10/26 14:06:27;;;;;;;16.13;13.05;;;;;;;;;;5056189;28;20048;-88
2021/10/26 14:08:56;;;;;;;18.35;13.02;;;;;;;;;;5057277;28;20097;-88
2021/10/26 14:11:22;;;;;;;16.38;13.02;;;;;;;;;;5055788;28;20079;-87
2021/10/26 14:13:48;;;;;;;15.48;12.57;;;;;;;;;;5073661;28;20090;-89
2021/10/26 14:16:14;;;;;;;15.95;11.93;;;;;;;;;;5056346;28;20322;-88
2021/10/26 14:18:42;;;;;;;19.23;13.38;;;;;;;;;;5072167;28;20066;-87
2021/10/26 14:21:09;;;;;;;20.02;15.52;;;;;;;;;;5055646;28;20056;-87
2021/10/26 14:23:36;;;;;;;21.10;16.42;;;;;;;;;;5055825;28;20044;-87
2021/10/26 14:26:05;;;;;;;17.55;15.43;;;;;;;;;;5056727;28;20392;-87
2021/10/26 14:28:31;;;;;;;18.85;13.98;;;;;;;;;;5056067;28;20087;-88
2021/10/26 14:30:59;;;;;;;21.30;16.73;;;;;;;;;;5055905;28;20062;-87
2021/10/26 14:33:26;;;;;;;18.83;15.07;;;;;;;;;;5056262;28;20052;-87
2021/10/26 14:35:53;;;;;;;21.90;15.73;;;;;;;;;;5072863;28;20040;-87
2021/10/26 14:38:36;;;;;;;18.98;16.73;;;;;;;;;;5071253;28;20044;-86
2021/10/26 14:41:20;;;;;;;21.98;17.33;;;;;;;;;;5056356;28;20052;-86
2021/10/26 14:54:58;;;;;;;24.23;17.42;;;;;;;;;;5073213;28;20555;-87
2021/10/26 14:57:25;;;;;;;23.48;17.88;;;;;;;;;;5055278;28;20072;-86
2021/10/26 14:59:53;;;;;;;23.10;17.60;;;;;;;;;;5056356;28;20036;-86
2021/10/26 15:02:19;;;;;;;22.27;16.08;;;;;;;;;;5055752;28;20048;-87
2021/10/26 15:04:46;;;;;;;24.42;19.50;;;;;;;;;;5062033;28;20049;-87
2021/10/26 15:07:12;;;;;;;23.88;19.13;;;;;;;;;;5054321;28;20044;-91
2021/10/26 15:09:49;;;;;;;26.88;20.75;;;;;;;;;;5058549;28;20554;-85
2021/10/26 15:12:17;;;;;;;23.52;18.92;;;;;;;;;;5056010;28;20079;-88
2021/10/26 15:14:46;;;;;;;18.40;13.25;;;;;;;;;;5056349;28;20047;-85
2021/10/26 15:17:13;;;;;;;23.45;18.73;;;;;;;;;;5048561;28;20044;-85
2021/10/26 15:19:48;;;;;;;25.50;19.63;;;;;;;;;;5035921;28;20049;-86
2021/10/26 15:22:43;;;;;;;24.08;17.90;;;;;;;;;;5037022;28;20468;-85
2021/10/26 15:35:39;;;;;;;22.70;18.10;;;;;;;;;;5055643;28;20040;-86
2021/10/26 15:38:06;;;;;;;21.75;17.73;;;;;;;;;;5038302;28;20044;-87
2021/10/26 15:40:32;;;;;;;26.98;19.55;;;;;;;;;;5037926;28;20413;-85
2021/10/26 15:42:58;;;;;;;24.58;15.48;;;;;;;;;;5057014;28;20051;-86
2021/10/26 15:45:25;;;;;;;22.50;16.27;;;;;;;;;;5039102;28;20132;-86
2021/10/26 15:47:51;;;;;;;22.73;16.20;;;;;;;;;;5055655;28;20537;-85
2021/10/26 15:50:17;;;;;;;21.92;15.98;;;;;;;;;;5058322;28;20048;-87
2021/10/26 15:53:12;;;;;;;;;;;;;;;;;;;;;
2021/10/26 15:55:37;;;;;;;20.58;13.77;;;;;;;;;;5067146;28;20048;-88
2021/10/26 15:58:04;;;;;;;18.85;13.15;;;;;;;;;;5038617;28;20174;-87
2021/10/26 16:00:30;;;;;;;18.20;12.32;;;;;;;;;;5055090;28;20060;-84
2021/10/26 16:02:58;;;;;;;17.45;11.30;;;;;;;;;;5039417;28;20056;-85
2021/10/26 16:05:24;;;;;;;13.68;9.65;;;;;;;;;;5038663;28;20064;-86
2021/10/26 16:07:50;;;;;;;15.23;9.20;;;;;;;;;;5065439;28;20052;-85
2021/10/26 16:10:24;;;;;;;11.07;7.95;;;;;;;;;;5054253;28;20048;-87
2021/10/26 16:12:59;;;;;;;12.10;7.03;;;;;;;;;;5040026;28;20040;-84
2021/10/26 16:15:31;;;;;;;15.23;8.57;;;;;;;;;;5037988;28;20087;-86
2021/10/26 16:17:57;;;;;;;11.77;5.65;;;;;;;;;;5047131;28;20055;-85
2021/10/26 16:20:23;;;;;;;12.48;5.85;;;;;;;;;;5073451;28;20084;-85
2021/10/26 16:22:50;;;;;;;11.32;6.25;;;;;;;;;;5076302;28;20123;-86
2021/10/26 16:25:17;;;;;;;11.40;6.47;;;;;;;;;;5075742;28;20040;-84